Terminal Aerodrome Forecast
Issued by NWS Wakefield, VA

Home | Current Version | Previous Version | Text Only | Print | Product List | Glossary On
Versions: 1 2 3 4 5 6 7 8 9 10 11 12 13 14 15 16
000
FTUS41 KAKQ 292300
TAFSBY
TAF
KSBY 292336Z 3000/3024 20010KT P6SM BKN080 OVC150
     FM300800 28010KT P6SM OVC040
     FM301400 31015G24KT P6SM BKN050
     FM301800 31022G30KT P6SM BKN040
     FM302300 31019G26KT P6SM SCT030=

USA.gov is the U.S. government's official web portal to all federal, state and local government web resources and services.